sensor_id;sensor_type;location;lat;lon;timestamp;pressure;altitude;pressure_sealevel;temperature;humidity
54920;BME280;63804;53.120;8.764;2024-02-14T00:01:20;101629.72;;;8.41;71.09
54920;BME280;63804;53.120;8.764;2024-02-14T00:03:47;101637.41;;;8.46;71.41
54920;BME280;63804;53.120;8.764;2024-02-14T00:06:14;101626.81;;;8.47;71.17
54920;BME280;63804;53.120;8.764;2024-02-14T00:08:42;101624.31;;;8.44;71.46
54920;BME280;63804;53.120;8.764;2024-02-14T00:11:09;101626.00;;;8.45;71.89
54920;BME280;63804;53.120;8.764;2024-02-14T00:13:36;101624.59;;;8.38;72.19
54920;BME280;63804;53.120;8.764;2024-02-14T00:16:04;101618.53;;;8.36;72.63
54920;BME280;63804;53.120;8.764;2024-02-14T00:18:33;101616.03;;;8.33;73.18
54920;BME280;63804;53.120;8.764;2024-02-14T00:21:01;101616.03;;;8.33;72.98
54920;BME280;63804;53.120;8.764;2024-02-14T00:23:28;101615.09;;;8.34;73.03
54920;BME280;63804;53.120;8.764;2024-02-14T00:25:55;101607.66;;;8.25;73.60
54920;BME280;63804;53.120;8.764;2024-02-14T00:28:23;101611.91;;;8.27;73.83
54920;BME280;63804;53.120;8.764;2024-02-14T00:30:54;101610.63;;;8.36;73.85
54920;BME280;63804;53.120;8.764;2024-02-14T00:33:21;101597.97;;;8.25;73.83
54920;BME280;63804;53.120;8.764;2024-02-14T00:35:49;101605.28;;;8.38;73.85
54920;BME280;63804;53.120;8.764;2024-02-14T00:38:17;101607.97;;;8.36;74.03
54920;BME280;63804;53.120;8.764;2024-02-14T00:40:44;101607.34;;;8.31;74.65
54920;BME280;63804;53.120;8.764;2024-02-14T00:43:11;101608.88;;;8.35;74.76
54920;BME280;63804;53.120;8.764;2024-02-14T00:45:39;101599.38;;;8.33;75.35
54920;BME280;63804;53.120;8.764;2024-02-14T00:48:07;101599.66;;;8.26;75.53
54920;BME280;63804;53.120;8.764;2024-02-14T00:50:34;101610.50;;;8.20;76.00
54920;BME280;63804;53.120;8.764;2024-02-14T00:53:02;101604.09;;;8.26;76.00
54920;BME280;63804;53.120;8.764;2024-02-14T00:55:29;101596.09;;;8.27;76.22
54920;BME280;63804;53.120;8.764;2024-02-14T00:57:56;101593.22;;;8.32;76.15
54920;BME280;63804;53.120;8.764;2024-02-14T01:00:23;101595.69;;;8.35;76.38
54920;BME280;63804;53.120;8.764;2024-02-14T01:02:50;101570.19;;;8.36;76.54
54920;BME280;63804;53.120;8.764;2024-02-14T01:05:18;101581.19;;;8.26;77.14
54920;BME280;63804;53.120;8.764;2024-02-14T01:07:45;101578.56;;;8.26;77.21
54920;BME280;63804;53.120;8.764;2024-02-14T01:10:13;101572.97;;;8.33;77.27
54920;BME280;63804;53.120;8.764;2024-02-14T01:12:43;101579.81;;;8.37;77.66
54920;BME280;63804;53.120;8.764;2024-02-14T01:15:10;101565.81;;;8.35;77.70
54920;BME280;63804;53.120;8.764;2024-02-14T01:17:37;101557.13;;;8.33;77.64
54920;BME280;63804;53.120;8.764;2024-02-14T01:20:06;101554.91;;;8.25;77.93
54920;BME280;63804;53.120;8.764;2024-02-14T01:22:35;101555.28;;;8.17;78.67
54920;BME280;63804;53.120;8.764;2024-02-14T01:25:04;101538.91;;;8.28;78.58
54920;BME280;63804;53.120;8.764;2024-02-14T01:27:31;101538.44;;;8.20;78.81
54920;BME280;63804;53.120;8.764;2024-02-14T01:29:58;101539.22;;;8.22;79.19
54920;BME280;63804;53.120;8.764;2024-02-14T01:32:26;101532.84;;;8.09;79.62
54920;BME280;63804;53.120;8.764;2024-02-14T01:34:55;101467.72;;;7.76;79.66
54920;BME280;63804;53.120;8.764;2024-02-14T01:37:23;101529.25;;;8.27;79.21
54920;BME280;63804;53.120;8.764;2024-02-14T01:39:50;101524.69;;;8.30;79.15
54920;BME280;63804;53.120;8.764;2024-02-14T01:42:17;101516.88;;;8.29;79.14
54920;BME280;63804;53.120;8.764;2024-02-14T01:44:44;101518.25;;;8.19;79.80
54920;BME280;63804;53.120;8.764;2024-02-14T01:47:11;101512.69;;;8.25;79.54
54920;BME280;63804;53.120;8.764;2024-02-14T01:49:39;101502.13;;;8.25;79.49
54920;BME280;63804;53.120;8.764;2024-02-14T01:52:08;101497.59;;;8.27;79.33
54920;BME280;63804;53.120;8.764;2024-02-14T01:54:36;101502.88;;;8.27;79.73
54920;BME280;63804;53.120;8.764;2024-02-14T01:57:04;101495.06;;;8.25;79.75
54920;BME280;63804;53.120;8.764;2024-02-14T01:59:33;101463.06;;;7.98;80.24
54920;BME280;63804;53.120;8.764;2024-02-14T02:02:02;101486.84;;;8.14;80.28
54920;BME280;63804;53.120;8.764;2024-02-14T02:04:29;101470.91;;;8.16;80.82
54920;BME280;63804;53.120;8.764;2024-02-14T02:06:56;101461.41;;;8.13;80.54
54920;BME280;63804;53.120;8.764;2024-02-14T02:09:23;101475.66;;;8.26;80.52
54920;BME280;63804;53.120;8.764;2024-02-14T02:11:51;101465.50;;;8.19;81.38
54920;BME280;63804;53.120;8.764;2024-02-14T02:14:23;101460.91;;;8.22;81.09
54920;BME280;63804;53.120;8.764;2024-02-14T02:16:50;101457.13;;;8.28;80.98
54920;BME280;63804;53.120;8.764;2024-02-14T02:19:17;101454.53;;;8.26;81.29
54920;BME280;63804;53.120;8.764;2024-02-14T02:21:44;101453.19;;;8.35;81.13
54920;BME280;63804;53.120;8.764;2024-02-14T02:24:13;101450.56;;;8.35;80.75
54920;BME280;63804;53.120;8.764;2024-02-14T02:26:40;101446.44;;;8.14;81.82
54920;BME280;63804;53.120;8.764;2024-02-14T02:29:07;101437.47;;;8.16;81.79
54920;BME280;63804;53.120;8.764;2024-02-14T02:31:34;101437.25;;;8.21;81.96
54920;BME280;63804;53.120;8.764;2024-02-14T02:34:01;101437.16;;;8.22;81.63
54920;BME280;63804;53.120;8.764;2024-02-14T02:36:28;101436.91;;;8.27;81.67
54920;BME280;63804;53.120;8.764;2024-02-14T02:38:57;101433.53;;;8.25;81.77
54920;BME280;63804;53.120;8.764;2024-02-14T02:41:25;101430.94;;;8.23;82.32
54920;BME280;63804;53.120;8.764;2024-02-14T02:43:52;101431.44;;;8.14;82.41
54920;BME280;63804;53.120;8.764;2024-02-14T02:46:21;101431.19;;;8.19;82.76
54920;BME280;63804;53.120;8.764;2024-02-14T02:48:49;101426.81;;;8.02;83.55
54920;BME280;63804;53.120;8.764;2024-02-14T02:51:17;101417.72;;;8.07;83.25
54920;BME280;63804;53.120;8.764;2024-02-14T02:53:44;101415.47;;;8.17;83.31
54920;BME280;63804;53.120;8.764;2024-02-14T02:56:11;101408.41;;;8.18;83.61
54920;BME280;63804;53.120;8.764;2024-02-14T02:58:39;101402.28;;;8.17;84.08
54920;BME280;63804;53.120;8.764;2024-02-14T03:01:08;101389.16;;;8.16;84.12
54920;BME280;63804;53.120;8.764;2024-02-14T03:03:36;101383.56;;;8.22;84.04
54920;BME280;63804;53.120;8.764;2024-02-14T03:06:05;101373.81;;;8.06;84.72
54920;BME280;63804;53.120;8.764;2024-02-14T03:08:32;101386.06;;;8.07;85.13
54920;BME280;63804;53.120;8.764;2024-02-14T03:11:05;101379.84;;;8.09;85.29
54920;BME280;63804;53.120;8.764;2024-02-14T03:13:33;101378.84;;;8.11;85.02
54920;BME280;63804;53.120;8.764;2024-02-14T03:16:00;101374.66;;;8.07;85.83
54920;BME280;63804;53.120;8.764;2024-02-14T03:18:27;101365.41;;;8.16;85.67
54920;BME280;63804;53.120;8.764;2024-02-14T03:20:54;101362.69;;;8.17;85.66
54920;BME280;63804;53.120;8.764;2024-02-14T03:23:22;101370.84;;;8.13;85.28
54920;BME280;63804;53.120;8.764;2024-02-14T03:25:50;101372.44;;;7.99;86.10
54920;BME280;63804;53.120;8.764;2024-02-14T03:28:18;101371.88;;;8.10;86.09
54920;BME280;63804;53.120;8.764;2024-02-14T03:30:45;101377.56;;;8.02;86.35
54920;BME280;63804;53.120;8.764;2024-02-14T03:33:12;101362.78;;;7.82;87.21
54920;BME280;63804;53.120;8.764;2024-02-14T03:35:39;101365.22;;;8.03;86.96
54920;BME280;63804;53.120;8.764;2024-02-14T03:38:07;101354.06;;;7.98;86.65
54920;BME280;63804;53.120;8.764;2024-02-14T03:40:37;101357.72;;;7.95;86.89
54920;BME280;63804;53.120;8.764;2024-02-14T03:43:05;101359.66;;;7.92;87.41
54920;BME280;63804;53.120;8.764;2024-02-14T03:45:32;101358.31;;;8.00;87.02
54920;BME280;63804;53.120;8.764;2024-02-14T03:47:59;101351.72;;;8.09;86.59
54920;BME280;63804;53.120;8.764;2024-02-14T03:50:26;101352.38;;;8.13;86.22
54920;BME280;63804;53.120;8.764;2024-02-14T03:52:54;101355.34;;;8.06;86.66
54920;BME280;63804;53.120;8.764;2024-02-14T03:55:21;101344.28;;;8.16;86.48
54920;BME280;63804;53.120;8.764;2024-02-14T03:57:50;101351.91;;;8.22;86.38
54920;BME280;63804;53.120;8.764;2024-02-14T04:00:18;101343.97;;;8.22;86.35
54920;BME280;63804;53.120;8.764;2024-02-14T04:02:45;101348.81;;;8.14;86.61
54920;BME280;63804;53.120;8.764;2024-02-14T04:05:12;101348.47;;;8.20;86.53
54920;BME280;63804;53.120;8.764;2024-02-14T04:07:39;101343.88;;;8.23;86.31
54920;BME280;63804;53.120;8.764;2024-02-14T04:10:06;101347.88;;;8.15;86.36
54920;BME280;63804;53.120;8.764;2024-02-14T04:12:34;101356.72;;;7.98;87.60
54920;BME280;63804;53.120;8.764;2024-02-14T04:15:01;101350.91;;;7.91;87.37
54920;BME280;63804;53.120;8.764;2024-02-14T04:17:28;101344.22;;;8.01;87.22
54920;BME280;63804;53.120;8.764;2024-02-14T04:19:55;101347.72;;;8.18;87.16
54920;BME280;63804;53.120;8.764;2024-02-14T04:22:22;101350.34;;;8.18;87.00
54920;BME280;63804;53.120;8.764;2024-02-14T04:24:49;101347.56;;;8.21;87.12
54920;BME280;63804;53.120;8.764;2024-02-14T04:27:16;101350.00;;;8.24;87.12
54920;BME280;63804;53.120;8.764;2024-02-14T04:29:47;101353.25;;;8.29;86.87
54920;BME280;63804;53.120;8.764;2024-02-14T04:32:14;101350.19;;;8.21;87.06
54920;BME280;63804;53.120;8.764;2024-02-14T04:34:42;101338.94;;;8.01;87.78
54920;BME280;63804;53.120;8.764;2024-02-14T04:37:11;101338.69;;;8.06;88.08
54920;BME280;63804;53.120;8.764;2024-02-14T04:39:41;101339.38;;;8.10;88.09
54920;BME280;63804;53.120;8.764;2024-02-14T04:42:09;101322.09;;;8.20;87.62
54920;BME280;63804;53.120;8.764;2024-02-14T04:44:36;101330.63;;;8.25;87.49
54920;BME280;63804;53.120;8.764;2024-02-14T04:47:03;101337.91;;;8.20;87.77
54920;BME280;63804;53.120;8.764;2024-02-14T04:49:30;101329.69;;;8.26;87.58
54920;BME280;63804;53.120;8.764;2024-02-14T04:51:57;101333.25;;;8.09;88.33
54920;BME280;63804;53.120;8.764;2024-02-14T04:54:25;101318.69;;;8.18;88.42
54920;BME280;63804;53.120;8.764;2024-02-14T04:56:54;101326.78;;;8.30;88.16
54920;BME280;63804;53.120;8.764;2024-02-14T04:59:26;101313.94;;;8.24;87.72
54920;BME280;63804;53.120;8.764;2024-02-14T05:01:53;101316.38;;;8.27;87.59
54920;BME280;63804;53.120;8.764;2024-02-14T05:04:21;101319.81;;;8.29;88.02
54920;BME280;63804;53.120;8.764;2024-02-14T05:06:48;101319.81;;;8.29;88.25
54920;BME280;63804;53.120;8.764;2024-02-14T05:09:18;101309.72;;;8.38;87.99
54920;BME280;63804;53.120;8.764;2024-02-14T05:11:45;101310.56;;;8.38;87.89
54920;BME280;63804;53.120;8.764;2024-02-14T05:14:12;101305.13;;;8.41;87.85
54920;BME280;63804;53.120;8.764;2024-02-14T05:16:39;101305.03;;;8.43;87.65
54920;BME280;63804;53.120;8.764;2024-02-14T05:19:06;101313.56;;;8.48;88.24
54920;BME280;63804;53.120;8.764;2024-02-14T05:21:33;101300.69;;;8.42;88.17
54920;BME280;63804;53.120;8.764;2024-02-14T05:24:00;101299.94;;;8.40;88.16
54920;BME280;63804;53.120;8.764;2024-02-14T05:26:27;101301.47;;;8.44;88.52
54920;BME280;63804;53.120;8.764;2024-02-14T05:28:55;101300.94;;;8.37;88.86
54920;BME280;63804;53.120;8.764;2024-02-14T05:31:22;101297.88;;;8.45;88.44
54920;BME280;63804;53.120;8.764;2024-02-14T05:33:49;101292.75;;;8.42;88.80
54920;BME280;63804;53.120;8.764;2024-02-14T05:36:17;101295.91;;;8.48;88.85
54920;BME280;63804;53.120;8.764;2024-02-14T05:38:44;101291.06;;;8.57;88.53
54920;BME280;63804;53.120;8.764;2024-02-14T05:41:11;101304.84;;;8.62;88.51
54920;BME280;63804;53.120;8.764;2024-02-14T05:43:38;101294.41;;;8.44;89.06
54920;BME280;63804;53.120;8.764;2024-02-14T05:46:05;101293.34;;;8.47;89.28
54920;BME280;63804;53.120;8.764;2024-02-14T05:48:32;101296.34;;;8.57;88.88
54920;BME280;63804;53.120;8.764;2024-02-14T05:50:59;101291.75;;;8.44;89.49
54920;BME280;63804;53.120;8.764;2024-02-14T05:53:26;101297.03;;;8.44;90.02
54920;BME280;63804;53.120;8.764;2024-02-14T05:55:53;101301.09;;;8.50;90.15
54920;BME280;63804;53.120;8.764;2024-02-14T05:58:20;101295.56;;;8.54;89.67
54920;BME280;63804;53.120;8.764;2024-02-14T06:00:47;101281.84;;;8.64;89.35
54920;BME280;63804;53.120;8.764;2024-02-14T06:03:14;101295.38;;;8.58;89.82
54920;BME280;63804;53.120;8.764;2024-02-14T06:05:42;101288.56;;;8.69;89.48
54920;BME280;63804;53.120;8.764;2024-02-14T06:08:09;101286.59;;;8.73;89.12
54920;BME280;63804;53.120;8.764;2024-02-14T06:10:36;101287.09;;;8.79;88.98
54920;BME280;63804;53.120;8.764;2024-02-14T06:13:05;101285.84;;;8.71;89.57
54920;BME280;63804;53.120;8.764;2024-02-14T06:15:32;101290.19;;;8.72;89.63
54920;BME280;63804;53.120;8.764;2024-02-14T06:17:59;101284.13;;;8.70;90.21
54920;BME280;63804;53.120;8.764;2024-02-14T06:20:26;101295.19;;;8.76;90.20
54920;BME280;63804;53.120;8.764;2024-02-14T06:22:54;101295.13;;;8.78;90.00
54920;BME280;63804;53.120;8.764;2024-02-14T06:25:31;101296.53;;;8.84;90.02
54920;BME280;63804;53.120;8.764;2024-02-14T06:27:58;101301.66;;;8.87;90.16
54920;BME280;63804;53.120;8.764;2024-02-14T06:30:25;101308.03;;;8.98;90.19
54920;BME280;63804;53.120;8.764;2024-02-14T06:32:57;101293.19;;;8.96;89.97
54920;BME280;63804;53.120;8.764;2024-02-14T06:35:29;101304.59;;;8.96;90.09
54920;BME280;63804;53.120;8.764;2024-02-14T06:37:57;101306.09;;;8.86;90.75
54920;BME280;63804;53.120;8.764;2024-02-14T06:40:31;101309.31;;;8.91;90.99
54920;BME280;63804;53.120;8.764;2024-02-14T06:42:59;101307.16;;;8.98;90.76
54920;BME280;63804;53.120;8.764;2024-02-14T06:45:29;101313.88;;;9.03;90.91
54920;BME280;63804;53.120;8.764;2024-02-14T06:47:56;101312.97;;;9.05;90.57
54920;BME280;63804;53.120;8.764;2024-02-14T06:50:23;101311.72;;;9.10;90.63
54920;BME280;63804;53.120;8.764;2024-02-14T06:52:55;101315.16;;;9.12;90.42
54920;BME280;63804;53.120;8.764;2024-02-14T06:55:27;101318.81;;;9.10;91.05
54920;BME280;63804;53.120;8.764;2024-02-14T06:57:54;101311.19;;;9.19;90.59
54920;BME280;63804;53.120;8.764;2024-02-14T07:00:21;101308.97;;;9.12;91.05
54920;BME280;63804;53.120;8.764;2024-02-14T07:02:48;101325.28;;;9.20;91.06
54920;BME280;63804;53.120;8.764;2024-02-14T07:05:15;101323.75;;;9.16;91.33
54920;BME280;63804;53.120;8.764;2024-02-14T07:07:42;101327.69;;;9.23;91.37
54920;BME280;63804;53.120;8.764;2024-02-14T07:10:10;101325.94;;;9.23;91.06
54920;BME280;63804;53.120;8.764;2024-02-14T07:12:37;101329.44;;;9.24;91.63
54920;BME280;63804;53.120;8.764;2024-02-14T07:15:05;101330.94;;;9.28;91.54
54920;BME280;63804;53.120;8.764;2024-02-14T07:17:32;101328.19;;;9.30;91.23
54920;BME280;63804;53.120;8.764;2024-02-14T07:20:01;101332.00;;;9.40;91.27
54920;BME280;63804;53.120;8.764;2024-02-14T07:22:28;101331.16;;;9.39;91.54
54920;BME280;63804;53.120;8.764;2024-02-14T07:24:57;101341.91;;;9.36;91.83
54920;BME280;63804;53.120;8.764;2024-02-14T07:27:24;101342.19;;;9.32;92.40
54920;BME280;63804;53.120;8.764;2024-02-14T07:29:51;101342.41;;;9.43;92.19
54920;BME280;63804;53.120;8.764;2024-02-14T07:32:19;101339.56;;;9.46;92.16
54920;BME280;63804;53.120;8.764;2024-02-14T07:34:47;101351.66;;;9.50;91.98
54920;BME280;63804;53.120;8.764;2024-02-14T07:37:14;101348.94;;;9.51;92.10
54920;BME280;63804;53.120;8.764;2024-02-14T07:39:46;101343.66;;;9.51;92.36
54920;BME280;63804;53.120;8.764;2024-02-14T07:42:14;101346.00;;;9.56;92.41
54920;BME280;63804;53.120;8.764;2024-02-14T07:44:41;101353.09;;;9.56;92.65
54920;BME280;63804;53.120;8.764;2024-02-14T07:47:09;101351.13;;;9.59;93.00
54920;BME280;63804;53.120;8.764;2024-02-14T07:49:36;101357.94;;;9.63;92.83
54920;BME280;63804;53.120;8.764;2024-02-14T07:52:04;101349.63;;;9.69;92.88
54920;BME280;63804;53.120;8.764;2024-02-14T07:54:31;101347.72;;;9.71;92.68
54920;BME280;63804;53.120;8.764;2024-02-14T07:56:58;101348.69;;;9.70;92.76
54920;BME280;63804;53.120;8.764;2024-02-14T07:59:25;101359.25;;;9.70;93.07
54920;BME280;63804;53.120;8.764;2024-02-14T08:01:55;101357.94;;;9.77;93.19
54920;BME280;63804;53.120;8.764;2024-02-14T08:04:24;101366.63;;;9.80;93.21
54920;BME280;63804;53.120;8.764;2024-02-14T08:06:52;101366.56;;;9.81;93.24
54920;BME280;63804;53.120;8.764;2024-02-14T08:09:19;101364.47;;;9.86;93.25
54920;BME280;63804;53.120;8.764;2024-02-14T08:11:46;101366.16;;;9.87;93.42
54920;BME280;63804;53.120;8.764;2024-02-14T08:14:13;101361.63;;;9.89;93.60
54920;BME280;63804;53.120;8.764;2024-02-14T08:16:40;101368.72;;;9.89;93.80
54920;BME280;63804;53.120;8.764;2024-02-14T08:19:07;101371.81;;;9.95;93.68
54920;BME280;63804;53.120;8.764;2024-02-14T08:21:35;101377.22;;;9.94;93.92
54920;BME280;63804;53.120;8.764;2024-02-14T08:24:03;101379.59;;;9.98;93.61
54920;BME280;63804;53.120;8.764;2024-02-14T08:26:30;101373.09;;;10.04;93.65
54920;BME280;63804;53.120;8.764;2024-02-14T08:28:58;101377.31;;;10.07;93.43
54920;BME280;63804;53.120;8.764;2024-02-14T08:31:25;101384.41;;;10.06;93.88
54920;BME280;63804;53.120;8.764;2024-02-14T08:33:52;101380.16;;;10.18;93.64
54920;BME280;63804;53.120;8.764;2024-02-14T08:36:21;101381.75;;;10.20;93.10
54920;BME280;63804;53.120;8.764;2024-02-14T08:38:48;101386.94;;;10.22;93.21
54920;BME280;63804;53.120;8.764;2024-02-14T08:41:16;101380.91;;;10.20;93.49
54920;BME280;63804;53.120;8.764;2024-02-14T08:43:45;101388.31;;;10.29;93.42
54920;BME280;63804;53.120;8.764;2024-02-14T08:46:14;101384.31;;;10.22;93.64
54920;BME280;63804;53.120;8.764;2024-02-14T08:48:42;101393.53;;;10.31;93.56
54920;BME280;63804;53.120;8.764;2024-02-14T08:51:16;101392.03;;;10.27;93.99
54920;BME280;63804;53.120;8.764;2024-02-14T08:53:44;101394.75;;;10.25;94.37
54920;BME280;63804;53.120;8.764;2024-02-14T08:56:13;101402.59;;;10.27;94.54
54920;BME280;63804;53.120;8.764;2024-02-14T08:58:41;101400.41;;;10.33;94.66
54920;BME280;63804;53.120;8.764;2024-02-14T09:01:08;101406.72;;;10.45;94.30
54920;BME280;63804;53.120;8.764;2024-02-14T09:03:44;101412.91;;;10.45;93.88
54920;BME280;63804;53.120;8.764;2024-02-14T09:06:17;101412.97;;;10.44;94.34
54920;BME280;63804;53.120;8.764;2024-02-14T09:08:45;101416.94;;;10.51;94.27
54920;BME280;63804;53.120;8.764;2024-02-14T09:11:13;101413.94;;;10.57;94.30
54920;BME280;63804;53.120;8.764;2024-02-14T09:13:40;101422.13;;;10.67;93.82
54920;BME280;63804;53.120;8.764;2024-02-14T09:16:08;101422.44;;;10.62;94.19
54920;BME280;63804;53.120;8.764;2024-02-14T09:18:37;101423.75;;;10.69;93.88
54920;BME280;63804;53.120;8.764;2024-02-14T09:21:04;101425.97;;;10.76;93.76
54920;BME280;63804;53.120;8.764;2024-02-14T09:23:33;101423.06;;;10.80;93.68
54920;BME280;63804;53.120;8.764;2024-02-14T09:26:01;101418.41;;;10.84;93.50
54920;BME280;63804;53.120;8.764;2024-02-14T09:28:29;101423.50;;;10.87;93.58
54920;BME280;63804;53.120;8.764;2024-02-14T09:30:56;101417.94;;;10.91;93.50
54920;BME280;63804;53.120;8.764;2024-02-14T09:33:23;101422.47;;;10.89;93.61
54920;BME280;63804;53.120;8.764;2024-02-14T09:35:52;101428.59;;;10.90;93.96
54920;BME280;63804;53.120;8.764;2024-02-14T09:38:20;101430.94;;;10.94;93.83
54920;BME280;63804;53.120;8.764;2024-02-14T09:40:50;101435.41;;;10.94;94.35
54920;BME280;63804;53.120;8.764;2024-02-14T09:43:36;101428.53;;;10.91;94.36
54920;BME280;63804;53.120;8.764;2024-02-14T09:46:06;101433.25;;;10.86;94.96
54920;BME280;63804;53.120;8.764;2024-02-14T09:48:34;101432.94;;;10.91;94.56
54920;BME280;63804;53.120;8.764;2024-02-14T09:51:05;101438.91;;;10.94;94.37
54920;BME280;63804;53.120;8.764;2024-02-14T09:53:34;101441.47;;;10.96;94.23
54920;BME280;63804;53.120;8.764;2024-02-14T09:56:02;101441.56;;;10.94;94.62
54920;BME280;63804;53.120;8.764;2024-02-14T09:58:31;101442.31;;;10.96;94.74
54920;BME280;63804;53.120;8.764;2024-02-14T10:00:58;101446.38;;;11.02;94.78
54920;BME280;63804;53.120;8.764;2024-02-14T10:03:26;101447.88;;;11.06;94.35
54920;BME280;63804;53.120;8.764;2024-02-14T10:05:54;101447.28;;;11.15;94.38
54920;BME280;63804;53.120;8.764;2024-02-14T10:08:22;101448.47;;;11.24;93.87
54920;BME280;63804;53.120;8.764;2024-02-14T10:10:49;101454.31;;;11.29;93.62
54920;BME280;63804;53.120;8.764;2024-02-14T10:13:19;101451.59;;;11.31;93.78
54920;BME280;63804;53.120;8.764;2024-02-14T10:15:47;101461.16;;;11.33;93.49
54920;BME280;63804;53.120;8.764;2024-02-14T10:18:14;101458.38;;;11.35;93.45
54920;BME280;63804;53.120;8.764;2024-02-14T10:20:55;101464.69;;;11.46;93.04
54920;BME280;63804;53.120;8.764;2024-02-14T10:23:23;101473.03;;;11.40;93.03
54920;BME280;63804;53.120;8.764;2024-02-14T10:25:53;101469.66;;;11.38;93.33
54920;BME280;63804;53.120;8.764;2024-02-14T10:28:20;101475.78;;;11.39;92.96
54920;BME280;63804;53.120;8.764;2024-02-14T10:30:59;101485.25;;;11.43;93.30
54920;BME280;63804;53.120;8.764;2024-02-14T10:33:29;101477.75;;;11.50;93.09
54920;BME280;63804;53.120;8.764;2024-02-14T10:35:57;101481.56;;;11.45;93.46
54920;BME280;63804;53.120;8.764;2024-02-14T10:38:31;101491.75;;;11.52;92.84
54920;BME280;63804;53.120;8.764;2024-02-14T10:41:01;101484.63;;;11.52;92.86
54920;BME280;63804;53.120;8.764;2024-02-14T10:43:29;101488.50;;;11.61;92.57
54920;BME280;63804;53.120;8.764;2024-02-14T10:45:59;101480.94;;;11.55;92.92
54920;BME280;63804;53.120;8.764;2024-02-14T10:48:30;101490.91;;;11.51;93.09
54920;BME280;63804;53.120;8.764;2024-02-14T10:51:04;101489.09;;;11.52;92.76
54920;BME280;63804;53.120;8.764;2024-02-14T10:53:34;101491.84;;;11.50;93.30
54920;BME280;63804;53.120;8.764;2024-02-14T10:56:02;101488.06;;;11.54;93.08
54920;BME280;63804;53.120;8.764;2024-02-14T10:58:30;101488.69;;;11.58;93.00
54920;BME280;63804;53.120;8.764;2024-02-14T11:00:58;101487.94;;;11.56;93.19
54920;BME280;63804;53.120;8.764;2024-02-14T11:03:26;101492.41;;;11.55;93.30
54920;BME280;63804;53.120;8.764;2024-02-14T11:05:54;101491.31;;;11.45;93.84
54920;BME280;63804;53.120;8.764;2024-02-14T11:08:28;101499.97;;;11.34;94.73
54920;BME280;63804;53.120;8.764;2024-02-14T11:10:56;101498.47;;;11.30;95.01
54920;BME280;63804;53.120;8.764;2024-02-14T11:13:26;101498.34;;;11.32;94.78
54920;BME280;63804;53.120;8.764;2024-02-14T11:15:55;101499.78;;;11.37;94.67
54920;BME280;63804;53.120;8.764;2024-02-14T11:18:27;101506.66;;;11.40;94.71
54920;BME280;63804;53.120;8.764;2024-02-14T11:20:57;101506.13;;;11.35;95.13
54920;BME280;63804;53.120;8.764;2024-02-14T11:23:25;101501.78;;;11.34;95.18
54920;BME280;63804;53.120;8.764;2024-02-14T11:26:19;101505.72;;;11.41;94.74
54920;BME280;63804;53.120;8.764;2024-02-14T11:28:46;101502.69;;;11.33;95.02
54920;BME280;63804;53.120;8.764;2024-02-14T11:31:18;101503.63;;;11.46;94.26
54920;BME280;63804;53.120;8.764;2024-02-14T11:33:45;101507.44;;;11.42;94.54
54920;BME280;63804;53.120;8.764;2024-02-14T11:36:13;101510.31;;;11.52;94.19
54920;BME280;63804;53.120;8.764;2024-02-14T11:38:44;101508.31;;;11.55;93.91
54920;BME280;63804;53.120;8.764;2024-02-14T11:41:11;101506.63;;;11.54;94.17
54920;BME280;63804;53.120;8.764;2024-02-14T11:43:39;101506.63;;;11.54;94.08
54920;BME280;63804;53.120;8.764;2024-02-14T11:46:06;101517.69;;;11.61;93.74
54920;BME280;63804;53.120;8.764;2024-02-14T11:48:33;101508.75;;;11.62;93.91
54920;BME280;63804;53.120;8.764;2024-02-14T11:51:01;101517.56;;;11.62;93.97
54920;BME280;63804;53.120;8.764;2024-02-14T11:53:29;101511.81;;;11.56;94.34
54920;BME280;63804;53.120;8.764;2024-02-14T11:55:56;101512.56;;;11.58;94.24
54920;BME280;63804;53.120;8.764;2024-02-14T11:58:23;101520.88;;;11.66;94.13
54920;BME280;63804;53.120;8.764;2024-02-14T12:00:51;101516.19;;;11.57;94.22
54920;BME280;63804;53.120;8.764;2024-02-14T12:03:19;101519.78;;;11.56;94.08
54920;BME280;63804;53.120;8.764;2024-02-14T12:05:49;101520.66;;;11.56;94.21
54920;BME280;63804;53.120;8.764;2024-02-14T12:08:18;101522.19;;;11.46;94.64
54920;BME280;63804;53.120;8.764;2024-02-14T12:10:46;101527.69;;;11.43;94.80
54920;BME280;63804;53.120;8.764;2024-02-14T12:13:17;101522.28;;;11.44;94.64
54920;BME280;63804;53.120;8.764;2024-02-14T12:15:46;101519.13;;;11.52;94.19
54920;BME280;63804;53.120;8.764;2024-02-14T12:18:14;101519.78;;;11.56;93.96
54920;BME280;63804;53.120;8.764;2024-02-14T12:20:42;101524.69;;;11.62;93.87
54920;BME280;63804;53.120;8.764;2024-02-14T12:23:18;101526.28;;;11.64;93.68
54920;BME280;63804;53.120;8.764;2024-02-14T12:25:46;101516.84;;;11.60;93.66
54920;BME280;63804;53.120;8.764;2024-02-14T12:28:17;101527.13;;;11.65;93.45
54920;BME280;63804;53.120;8.764;2024-02-14T12:31:43;101523.66;;;11.64;93.15
54920;BME280;63804;53.120;8.764;2024-02-14T12:33:46;101524.34;;;11.54;94.26
54920;BME280;63804;53.120;8.764;2024-02-14T12:36:14;101520.41;;;11.59;93.92
54920;BME280;63804;53.120;8.764;2024-02-14T12:38:42;101524.69;;;11.62;93.81
54920;BME280;63804;53.120;8.764;2024-02-14T12:41:09;101518.22;;;11.66;93.39
54920;BME280;63804;53.120;8.764;2024-02-14T12:43:36;101519.72;;;11.70;92.99
54920;BME280;63804;53.120;8.764;2024-02-14T12:46:04;101526.06;;;11.67;93.24
54920;BME280;63804;53.120;8.764;2024-02-14T12:48:31;101523.13;;;11.72;92.99
54920;BME280;63804;53.120;8.764;2024-02-14T12:50:58;101522.38;;;11.70;93.33
54920;BME280;63804;53.120;8.764;2024-02-14T12:53:25;101522.91;;;11.75;93.07
54920;BME280;63804;53.120;8.764;2024-02-14T12:55:53;101528.50;;;11.85;92.46
54920;BME280;63804;53.120;8.764;2024-02-14T12:58:21;101531.16;;;11.85;92.73
54920;BME280;63804;53.120;8.764;2024-02-14T13:00:48;101525.47;;;11.77;92.78
54920;BME280;63804;53.120;8.764;2024-02-14T13:03:15;101520.91;;;11.79;92.77